createdAt,value
2017-08-27T00:01:47.620Z,17.90
2017-08-27T00:04:15.274Z,17.90
2017-08-27T00:06:43.085Z,17.90
2017-08-27T00:09:10.720Z,17.80
2017-08-27T00:11:38.524Z,17.70
2017-08-27T00:14:06.203Z,17.70
2017-08-27T00:16:33.903Z,17.60
2017-08-27T00:19:01.754Z,17.50
2017-08-27T00:21:29.604Z,17.40
2017-08-27T00:23:57.368Z,17.40
2017-08-27T00:26:25.178Z,17.30
2017-08-27T00:28:53.057Z,17.30
2017-08-27T00:31:20.819Z,17.20
2017-08-27T00:33:49.368Z,17.10
2017-08-27T00:36:17.420Z,17.10
2017-08-27T00:38:45.099Z,17.10
2017-08-27T00:41:12.923Z,17.10
2017-08-27T00:43:40.879Z,17.10
2017-08-27T00:46:08.622Z,17.00
2017-08-27T00:48:36.372Z,17.00
2017-08-27T00:51:04.182Z,17.00
2017-08-27T00:53:31.902Z,16.90
2017-08-27T00:55:59.739Z,16.90
2017-08-27T00:58:27.480Z,16.90
2017-08-27T01:00:55.150Z,16.90
2017-08-27T01:03:22.905Z,16.80
2017-08-27T01:05:50.723Z,16.80
2017-08-27T01:08:18.474Z,16.80
2017-08-27T01:10:46.159Z,16.70
2017-08-27T01:13:14.079Z,16.70
2017-08-27T01:15:41.830Z,16.70
2017-08-27T01:18:09.573Z,16.70
2017-08-27T01:20:37.420Z,16.70
2017-08-27T01:23:05.282Z,16.70
2017-08-27T01:25:32.928Z,16.60
2017-08-27T01:28:00.775Z,16.60
2017-08-27T01:30:28.528Z,16.60
2017-08-27T01:32:56.182Z,16.60
2017-08-27T01:35:24.013Z,16.50
2017-08-27T01:37:51.646Z,16.50
2017-08-27T01:40:19.314Z,16.50
2017-08-27T01:42:47.081Z,16.50
2017-08-27T01:45:14.948Z,16.50
2017-08-27T01:47:42.781Z,16.40
2017-08-27T01:50:10.484Z,16.40
2017-08-27T01:52:38.166Z,16.40
2017-08-27T01:55:06.047Z,16.40
2017-08-27T01:57:33.744Z,16.40
2017-08-27T02:00:01.367Z,16.40
2017-08-27T02:02:29.081Z,16.30
2017-08-27T02:04:56.907Z,16.30
2017-08-27T02:07:24.661Z,16.30
2017-08-27T02:09:52.287Z,16.20
2017-08-27T02:12:20.151Z,16.20
2017-08-27T02:14:47.810Z,16.20
2017-08-27T02:17:15.545Z,16.20
2017-08-27T02:19:43.395Z,16.20
2017-08-27T02:22:11.155Z,16.20
2017-08-27T02:24:38.943Z,16.20
2017-08-27T02:27:06.683Z,16.20
2017-08-27T02:29:34.409Z,16.10
2017-08-27T02:32:02.140Z,16.10
2017-08-27T02:34:29.891Z,16.10
2017-08-27T02:36:57.638Z,16.10
2017-08-27T02:39:25.390Z,16.00
2017-08-27T02:41:53.195Z,16.00
2017-08-27T02:44:20.988Z,16.00
2017-08-27T02:46:48.736Z,16.00
2017-08-27T02:49:16.601Z,16.00
2017-08-27T02:51:44.265Z,16.00
2017-08-27T02:54:12.085Z,15.90
2017-08-27T02:56:40.034Z,15.90
2017-08-27T02:59:07.677Z,15.90
2017-08-27T03:01:35.441Z,15.90
2017-08-27T03:04:03.139Z,15.80
2017-08-27T03:06:30.826Z,15.80
2017-08-27T03:08:58.572Z,15.80
2017-08-27T03:11:26.282Z,15.80
2017-08-27T03:13:54.075Z,15.80
2017-08-27T03:16:21.928Z,15.70
2017-08-27T03:18:49.718Z,15.70
2017-08-27T03:21:17.369Z,15.70
2017-08-27T03:23:45.182Z,15.60
2017-08-27T03:26:13.737Z,15.60
2017-08-27T03:28:41.402Z,15.60
2017-08-27T03:31:09.137Z,15.50
2017-08-27T03:33:36.887Z,15.50
2017-08-27T03:36:04.564Z,15.50
2017-08-27T03:38:33.013Z,15.50
2017-08-27T03:41:01.698Z,15.50
2017-08-27T03:43:29.512Z,15.40
2017-08-27T03:45:57.191Z,15.40
2017-08-27T03:48:25.001Z,15.40
2017-08-27T03:50:52.619Z,15.40
2017-08-27T03:53:20.321Z,15.40
2017-08-27T03:55:48.159Z,15.40
2017-08-27T03:58:15.804Z,15.50
2017-08-27T04:00:43.548Z,15.50
2017-08-27T04:03:11.342Z,15.40
2017-08-27T04:05:39.054Z,15.50
2017-08-27T04:08:06.817Z,15.50
2017-08-27T04:10:34.661Z,15.50
2017-08-27T04:13:02.392Z,15.40
2017-08-27T04:15:30.026Z,15.40
2017-08-27T04:17:57.801Z,15.50
2017-08-27T04:20:25.544Z,15.50
2017-08-27T04:22:53.219Z,15.50
2017-08-27T04:25:22.056Z,15.50
2017-08-27T04:27:49.806Z,15.60
2017-08-27T04:30:17.451Z,15.60
2017-08-27T04:32:45.303Z,15.60
2017-08-27T04:35:12.966Z,15.70
2017-08-27T04:37:40.615Z,15.70
2017-08-27T04:40:08.548Z,15.70
2017-08-27T04:42:36.200Z,15.70
2017-08-27T04:45:03.828Z,15.80
2017-08-27T04:47:32.101Z,15.80
2017-08-27T04:50:00.516Z,15.80
2017-08-27T04:52:28.314Z,15.80
2017-08-27T04:54:56.269Z,15.80
2017-08-27T04:57:25.818Z,15.90
2017-08-27T04:59:53.803Z,15.90
2017-08-27T05:02:21.786Z,16.00
2017-08-27T05:04:50.185Z,16.30
2017-08-27T05:07:17.916Z,16.20
2017-08-27T05:09:46.551Z,17.70
2017-08-27T05:12:14.310Z,17.70
2017-08-27T05:14:42.148Z,18.60
2017-08-27T05:17:10.005Z,19.50
2017-08-27T05:19:37.763Z,20.30
2017-08-27T05:22:05.418Z,21.20
2017-08-27T05:24:33.183Z,22.20
2017-08-27T05:27:01.008Z,23.30
2017-08-27T05:29:28.746Z,24.10
2017-08-27T05:31:56.503Z,24.90
2017-08-27T05:34:24.211Z,25.70
2017-08-27T05:36:52.000Z,26.70
2017-08-27T05:39:20.066Z,27.70
2017-08-27T05:41:47.834Z,28.40
2017-08-27T05:44:15.543Z,29.30
2017-08-27T05:46:43.392Z,29.90
2017-08-27T05:49:11.037Z,30.30
2017-08-27T05:51:38.698Z,31.00
2017-08-27T05:54:06.407Z,31.70
2017-08-27T05:56:34.067Z,32.10
2017-08-27T05:59:01.725Z,32.90
2017-08-27T06:01:29.422Z,33.60
2017-08-27T06:03:57.053Z,34.20
2017-08-27T06:06:24.776Z,34.80
2017-08-27T06:08:52.741Z,35.50
2017-08-27T06:11:20.373Z,36.10
2017-08-27T06:13:48.031Z,36.20
2017-08-27T06:16:15.768Z,36.30
2017-08-27T06:18:43.397Z,36.30
2017-08-27T06:21:11.087Z,36.60
2017-08-27T06:23:38.829Z,36.90
2017-08-27T06:26:06.469Z,37.40
2017-08-27T06:28:34.102Z,37.60
2017-08-27T06:31:01.968Z,36.90
2017-08-27T06:33:29.714Z,35.60
2017-08-27T06:35:57.368Z,33.80
2017-08-27T06:38:25.090Z,32.30
2017-08-27T06:40:52.716Z,31.20
2017-08-27T06:43:20.397Z,29.90
2017-08-27T06:45:48.159Z,29.10
2017-08-27T06:48:15.894Z,28.50
2017-08-27T06:50:43.543Z,28.10
2017-08-27T06:53:11.272Z,27.60
2017-08-27T06:55:38.943Z,27.30
2017-08-27T06:58:06.588Z,27.00
2017-08-27T07:00:34.434Z,26.50
2017-08-27T07:03:02.099Z,26.20
2017-08-27T07:05:29.829Z,26.20
2017-08-27T07:07:57.598Z,26.10
2017-08-27T07:10:26.034Z,25.80
2017-08-27T07:12:53.801Z,25.80
2017-08-27T07:15:21.559Z,26.40
2017-08-27T07:17:49.290Z,25.80
2017-08-27T07:20:17.045Z,25.80
2017-08-27T07:22:45.004Z,25.70
2017-08-27T07:25:12.612Z,25.70
2017-08-27T07:27:40.292Z,25.80
2017-08-27T07:30:08.044Z,25.60
2017-08-27T07:32:35.695Z,25.70
2017-08-27T07:35:03.435Z,25.50
2017-08-27T07:37:31.200Z,25.60
2017-08-27T07:39:59.124Z,25.70
2017-08-27T07:42:26.881Z,25.60
2017-08-27T07:44:54.749Z,25.10
2017-08-27T07:47:22.482Z,25.10
2017-08-27T07:49:50.129Z,25.20
2017-08-27T07:52:17.907Z,25.10
2017-08-27T07:54:45.721Z,24.90
2017-08-27T07:57:13.479Z,24.80
2017-08-27T07:59:41.136Z,24.90
2017-08-27T08:02:08.813Z,24.90
2017-08-27T08:04:36.518Z,25.10
2017-08-27T08:07:04.472Z,24.90
2017-08-27T08:09:32.110Z,24.80
2017-08-27T08:11:59.964Z,24.70
2017-08-27T08:14:27.651Z,24.70
2017-08-27T08:16:56.638Z,25.00
2017-08-27T08:19:25.376Z,25.20
2017-08-27T08:21:54.159Z,25.00
2017-08-27T08:24:21.814Z,24.90
2017-08-27T08:26:49.717Z,24.90
2017-08-27T08:29:17.420Z,24.60
2017-08-27T08:31:45.115Z,24.50
2017-08-27T08:34:12.770Z,24.40
2017-08-27T08:36:40.546Z,24.40
2017-08-27T08:39:08.181Z,24.40
2017-08-27T08:41:35.974Z,24.30
2017-08-27T08:44:03.672Z,24.30
2017-08-27T08:46:31.312Z,24.10
2017-08-27T08:48:59.072Z,24.20
2017-08-27T08:51:27.628Z,24.00
2017-08-27T08:53:55.367Z,23.90
2017-08-27T08:56:23.178Z,23.70
2017-08-27T08:58:50.866Z,23.60
2017-08-27T09:01:18.605Z,23.80
2017-08-27T09:03:46.249Z,23.90
2017-08-27T09:06:13.981Z,24.30
2017-08-27T09:08:41.626Z,24.80
2017-08-27T09:11:09.282Z,25.30
2017-08-27T09:13:37.042Z,25.30
2017-08-27T09:16:04.674Z,25.20
2017-08-27T09:18:32.329Z,25.10
2017-08-27T09:21:00.122Z,24.90
2017-08-27T09:23:27.929Z,24.50
2017-08-27T09:25:55.681Z,24.30
2017-08-27T09:28:23.359Z,23.90
2017-08-27T09:30:51.184Z,23.60
2017-08-27T09:33:18.842Z,23.50
2017-08-27T09:35:46.568Z,23.60
2017-08-27T09:38:14.321Z,24.00
2017-08-27T09:40:41.956Z,24.40
2017-08-27T09:43:09.715Z,24.80
2017-08-27T09:45:37.463Z,25.00
2017-08-27T09:48:05.108Z,25.10
2017-08-27T09:50:32.947Z,25.10
2017-08-27T09:53:00.612Z,24.90
2017-08-27T09:55:28.262Z,24.90
2017-08-27T09:57:56.071Z,25.00
2017-08-27T10:00:23.721Z,24.90
2017-08-27T10:02:51.346Z,24.70
2017-08-27T10:05:19.068Z,25.00
2017-08-27T10:07:46.732Z,25.20
2017-08-27T10:10:14.358Z,25.10
2017-08-27T10:12:42.818Z,24.90
2017-08-27T10:15:11.238Z,25.10
2017-08-27T10:17:38.910Z,25.10
2017-08-27T10:20:06.662Z,25.30
2017-08-27T10:22:34.302Z,25.30
2017-08-27T10:25:01.943Z,25.60
2017-08-27T10:27:29.661Z,25.80
2017-08-27T10:29:57.296Z,25.80
2017-08-27T10:32:24.965Z,25.80
2017-08-27T10:34:52.666Z,25.70
2017-08-27T10:37:20.346Z,25.30
2017-08-27T10:39:48.108Z,25.10
2017-08-27T10:42:15.773Z,25.10
2017-08-27T10:44:43.412Z,25.40
2017-08-27T10:47:11.034Z,25.50
2017-08-27T10:49:38.771Z,25.50
2017-08-27T10:52:06.420Z,25.40
2017-08-27T10:54:34.093Z,25.10
2017-08-27T10:57:01.782Z,25.00
2017-08-27T10:59:29.396Z,25.20
2017-08-27T11:01:57.038Z,25.40
2017-08-27T11:04:24.749Z,25.30
2017-08-27T11:06:53.886Z,25.40
2017-08-27T11:09:22.812Z,25.50
2017-08-27T11:11:52.992Z,25.30
2017-08-27T11:14:21.154Z,25.10
2017-08-27T11:16:48.790Z,24.70
2017-08-27T11:19:16.478Z,24.60
2017-08-27T11:21:46.688Z,24.60
2017-08-27T11:24:15.780Z,24.50
2017-08-27T11:26:43.545Z,24.60
2017-08-27T11:29:11.560Z,24.90
2017-08-27T11:31:39.215Z,25.00
2017-08-27T11:34:07.089Z,25.40
2017-08-27T11:36:35.003Z,25.70
2017-08-27T11:39:04.041Z,25.60
2017-08-27T11:41:31.774Z,25.50
2017-08-27T11:43:59.392Z,25.40
2017-08-27T11:46:27.027Z,25.20
2017-08-27T11:48:54.759Z,25.10
2017-08-27T11:51:22.379Z,25.10
2017-08-27T11:53:50.021Z,25.00
2017-08-27T11:56:17.830Z,24.90
2017-08-27T11:58:45.454Z,24.80
2017-08-27T12:01:13.071Z,24.90
2017-08-27T12:03:40.781Z,24.70
2017-08-27T12:06:08.524Z,24.70
2017-08-27T12:08:36.169Z,24.80
2017-08-27T12:11:03.895Z,24.60
2017-08-27T12:13:31.579Z,24.40
2017-08-27T12:15:59.212Z,24.30
2017-08-27T12:18:27.056Z,24.20
2017-08-27T12:20:54.708Z,24.10
2017-08-27T12:23:22.382Z,24.00
2017-08-27T12:25:50.219Z,24.30
2017-08-27T12:28:17.957Z,24.40
2017-08-27T12:30:47.254Z,24.30
2017-08-27T12:33:15.167Z,24.30
2017-08-27T12:35:42.922Z,24.30
2017-08-27T12:38:10.560Z,24.30
2017-08-27T12:40:38.312Z,24.30
2017-08-27T12:43:06.051Z,24.20
2017-08-27T12:45:33.702Z,23.90
2017-08-27T12:48:01.557Z,23.80
2017-08-27T12:50:29.201Z,23.70
2017-08-27T12:52:56.849Z,23.90
2017-08-27T12:55:24.557Z,23.80
2017-08-27T12:57:52.203Z,24.10
2017-08-27T13:00:19.858Z,24.30
2017-08-27T13:02:48.482Z,24.60
2017-08-27T13:05:16.094Z,24.70
2017-08-27T13:07:43.749Z,24.90
2017-08-27T13:10:11.445Z,25.10
2017-08-27T13:12:39.068Z,25.10
2017-08-27T13:15:06.700Z,25.10
2017-08-27T13:17:34.404Z,24.80
2017-08-27T13:20:02.043Z,24.50
2017-08-27T13:22:29.710Z,24.30
2017-08-27T13:24:57.410Z,24.30
2017-08-27T13:27:25.344Z,24.50
2017-08-27T13:29:52.980Z,24.50
2017-08-27T13:32:20.768Z,24.60
2017-08-27T13:34:48.418Z,24.40
2017-08-27T13:37:16.092Z,24.30
2017-08-27T13:39:43.837Z,24.40
2017-08-27T13:42:11.468Z,24.40
2017-08-27T13:44:39.117Z,24.30
2017-08-27T13:47:06.898Z,24.20
2017-08-27T13:49:34.511Z,23.90
2017-08-27T13:52:02.180Z,23.90
2017-08-27T13:54:29.924Z,24.00
2017-08-27T13:56:57.570Z,24.00
2017-08-27T13:59:25.221Z,23.90
2017-08-27T14:01:52.928Z,23.80
2017-08-27T14:04:20.819Z,23.70
2017-08-27T14:06:48.503Z,23.90
2017-08-27T14:09:16.306Z,23.80
2017-08-27T14:11:43.952Z,23.80
2017-08-27T14:14:11.595Z,23.70
2017-08-27T14:16:39.287Z,23.80
2017-08-27T14:19:07.683Z,23.90
2017-08-27T14:21:35.326Z,23.90
2017-08-27T14:24:03.062Z,23.90
2017-08-27T14:26:30.701Z,23.90
2017-08-27T14:28:58.310Z,23.90
2017-08-27T14:31:25.955Z,24.00
2017-08-27T14:33:53.554Z,24.00
2017-08-27T14:36:21.223Z,24.00
2017-08-27T14:38:48.920Z,23.80
2017-08-27T14:41:16.598Z,23.70
2017-08-27T14:43:44.239Z,23.50
2017-08-27T14:46:11.928Z,23.40
2017-08-27T14:48:39.577Z,23.40
2017-08-27T14:51:07.238Z,23.30
2017-08-27T14:53:35.028Z,23.20
2017-08-27T14:56:02.677Z,23.30
2017-08-27T14:58:30.319Z,23.30
2017-08-27T15:00:58.019Z,23.30
2017-08-27T15:03:25.665Z,23.30
2017-08-27T15:05:53.297Z,23.20
2017-08-27T15:08:21.097Z,23.20
2017-08-27T15:10:48.750Z,23.20
2017-08-27T15:13:16.392Z,23.30
2017-08-27T15:15:44.132Z,23.40
2017-08-27T15:18:11.764Z,23.40
2017-08-27T15:20:39.403Z,23.30
2017-08-27T15:23:07.224Z,23.20
2017-08-27T15:25:34.875Z,23.00
2017-08-27T15:28:02.524Z,23.00
2017-08-27T15:30:30.235Z,22.90
2017-08-27T15:32:57.881Z,22.90
2017-08-27T15:35:26.084Z,22.90
2017-08-27T15:37:53.803Z,22.80
2017-08-27T15:40:21.447Z,22.70
2017-08-27T15:42:49.096Z,22.60
2017-08-27T15:45:16.777Z,22.50
2017-08-27T15:47:44.420Z,22.60
2017-08-27T15:50:12.054Z,22.50
2017-08-27T15:52:39.774Z,22.50
2017-08-27T15:55:07.429Z,22.50
2017-08-27T15:57:35.087Z,22.50
2017-08-27T16:00:02.831Z,22.40
2017-08-27T16:02:30.459Z,22.20
2017-08-27T16:04:58.104Z,22.20
2017-08-27T16:07:25.817Z,22.20
2017-08-27T16:09:53.443Z,22.20
2017-08-27T16:12:21.081Z,22.10
2017-08-27T16:14:48.810Z,21.90
2017-08-27T16:17:16.445Z,21.80
2017-08-27T16:19:44.082Z,21.90
2017-08-27T16:22:11.943Z,21.90
2017-08-27T16:24:39.583Z,21.70
2017-08-27T16:27:07.221Z,21.60
2017-08-27T16:29:34.913Z,21.50
2017-08-27T16:32:02.554Z,21.50
2017-08-27T16:34:30.197Z,21.40
2017-08-27T16:36:57.906Z,21.30
2017-08-27T16:39:25.537Z,21.20
2017-08-27T16:41:53.166Z,21.20
2017-08-27T16:44:20.937Z,21.10
2017-08-27T16:47:00.341Z,21.10
2017-08-27T16:49:28.018Z,21.00
2017-08-27T16:51:55.659Z,20.90
2017-08-27T16:54:23.311Z,20.80
2017-08-27T16:56:51.008Z,20.70
2017-08-27T16:59:18.666Z,20.60
2017-08-27T17:01:46.296Z,20.50
2017-08-27T17:04:14.005Z,20.40
2017-08-27T17:06:41.640Z,20.30
2017-08-27T17:09:09.276Z,20.30
2017-08-27T17:11:37.092Z,20.20
2017-08-27T17:14:04.728Z,20.20
2017-08-27T17:16:32.391Z,20.10
2017-08-27T17:19:00.060Z,20.10
2017-08-27T17:21:27.664Z,20.00
2017-08-27T17:23:55.325Z,19.90
2017-08-27T17:26:23.120Z,19.80
2017-08-27T17:28:50.764Z,19.80
2017-08-27T17:31:18.449Z,19.70
2017-08-27T17:33:46.127Z,19.70
2017-08-27T17:36:13.788Z,19.60
2017-08-27T17:38:41.431Z,19.50
2017-08-27T17:41:09.156Z,19.40
2017-08-27T17:43:36.808Z,19.40
2017-08-27T17:46:04.440Z,19.30
2017-08-27T17:48:32.285Z,19.20
2017-08-27T17:50:59.909Z,19.20
2017-08-27T17:53:27.550Z,19.10
2017-08-27T17:55:55.236Z,19.00
2017-08-27T17:58:22.918Z,19.00
2017-08-27T18:00:50.607Z,18.90
2017-08-27T18:03:18.355Z,18.80
2017-08-27T18:05:46.146Z,18.70
2017-08-27T18:08:13.895Z,18.70
2017-08-27T18:10:41.596Z,18.60
2017-08-27T18:13:09.229Z,18.50
2017-08-27T18:15:36.873Z,18.50
2017-08-27T18:18:04.598Z,18.40
2017-08-27T18:20:32.207Z,18.30
2017-08-27T18:22:59.871Z,18.30
2017-08-27T18:25:27.582Z,18.20
2017-08-27T18:27:55.243Z,18.20
2017-08-27T18:30:22.890Z,18.10
2017-08-27T18:32:50.583Z,18.20
2017-08-27T18:35:18.252Z,18.00
2017-08-27T18:37:46.056Z,18.00
2017-08-27T18:40:13.802Z,17.90
2017-08-27T18:42:42.036Z,17.80
2017-08-27T18:45:10.093Z,16.30
2017-08-27T18:47:38.229Z,17.70
2017-08-27T18:50:06.375Z,17.70
2017-08-27T18:52:34.583Z,17.60
2017-08-27T18:55:02.611Z,17.60
2017-08-27T18:57:30.308Z,17.60
2017-08-27T18:59:58.178Z,17.60
2017-08-27T19:02:29.200Z,17.50
2017-08-27T19:04:56.908Z,17.50
2017-08-27T19:07:24.774Z,17.50
2017-08-27T19:09:52.722Z,17.40
2017-08-27T19:12:20.558Z,17.40
2017-08-27T19:14:48.420Z,17.40
2017-08-27T19:17:16.470Z,17.30
2017-08-27T19:19:44.825Z,17.30
2017-08-27T19:22:12.614Z,17.20
2017-08-27T19:24:40.424Z,17.20
2017-08-27T19:27:08.480Z,17.20
2017-08-27T19:29:36.166Z,17.10
2017-08-27T19:32:04.259Z,17.10
2017-08-27T19:34:32.443Z,17.00
2017-08-27T19:37:01.129Z,17.00
2017-08-27T19:39:28.832Z,17.00
2017-08-27T19:41:56.501Z,16.90
2017-08-27T19:44:24.183Z,16.90
2017-08-27T19:46:52.613Z,16.80
2017-08-27T19:49:20.294Z,16.80
2017-08-27T19:51:47.953Z,16.80
2017-08-27T19:54:15.733Z,16.80
2017-08-27T19:56:44.426Z,16.70
2017-08-27T19:59:12.186Z,16.70
2017-08-27T20:01:39.880Z,16.70
2017-08-27T20:04:07.543Z,16.60
2017-08-27T20:06:35.309Z,16.60
2017-08-27T20:09:03.186Z,16.60
2017-08-27T20:11:31.725Z,16.50
2017-08-27T20:13:59.591Z,16.50
2017-08-27T20:16:27.334Z,16.50
2017-08-27T20:18:55.180Z,16.40
2017-08-27T20:21:22.826Z,16.40
2017-08-27T20:23:50.614Z,16.40
2017-08-27T20:26:18.253Z,16.40
2017-08-27T20:28:45.871Z,16.40
2017-08-27T20:31:13.734Z,16.30
2017-08-27T20:33:41.373Z,16.30
2017-08-27T20:36:09.031Z,16.30
2017-08-27T20:38:36.696Z,16.30
2017-08-27T20:41:04.337Z,16.20
2017-08-27T20:43:31.979Z,16.20
2017-08-27T20:45:59.767Z,16.20
2017-08-27T20:48:27.451Z,16.20
2017-08-27T20:50:55.845Z,16.10
2017-08-27T20:53:23.572Z,16.10
2017-08-27T20:55:51.976Z,16.10
2017-08-27T20:58:19.664Z,16.10
2017-08-27T21:00:47.396Z,16.10
2017-08-27T21:03:15.044Z,16.10
2017-08-27T21:05:42.693Z,16.10
2017-08-27T21:08:10.390Z,16.00
2017-08-27T21:10:38.044Z,16.00
2017-08-27T21:13:05.680Z,16.00
2017-08-27T21:15:33.395Z,16.00
2017-08-27T21:18:01.037Z,15.90
2017-08-27T21:20:28.694Z,15.90
2017-08-27T21:22:56.420Z,15.90
2017-08-27T21:25:24.058Z,15.80
2017-08-27T21:27:51.816Z,15.80
2017-08-27T21:30:19.505Z,15.80
2017-08-27T21:32:47.159Z,15.80
2017-08-27T21:35:14.851Z,15.80
2017-08-27T21:37:42.694Z,15.80
2017-08-27T21:40:10.448Z,15.70
2017-08-27T21:42:38.121Z,15.70
2017-08-27T21:45:05.817Z,15.70
2017-08-27T21:47:33.460Z,15.70
2017-08-27T21:50:01.113Z,15.70
2017-08-27T21:52:28.937Z,15.60
2017-08-27T21:54:56.598Z,15.60
2017-08-27T21:57:25.249Z,15.60
2017-08-27T21:59:53.092Z,15.60
2017-08-27T22:02:20.749Z,15.60
2017-08-27T22:04:48.399Z,15.60
2017-08-27T22:07:16.106Z,15.60
2017-08-27T22:09:43.839Z,15.60
2017-08-27T22:12:11.686Z,15.60
2017-08-27T22:14:39.588Z,15.60
2017-08-27T22:17:07.389Z,15.50
2017-08-27T22:19:35.128Z,15.60
2017-08-27T22:22:03.393Z,15.50
2017-08-27T22:24:31.139Z,15.50
2017-08-27T22:26:58.887Z,15.50
2017-08-27T22:29:26.622Z,15.50
2017-08-27T22:31:54.676Z,15.40
2017-08-27T22:34:22.513Z,15.40
2017-08-27T22:36:50.217Z,15.40
2017-08-27T22:39:17.852Z,15.40
2017-08-27T22:41:45.504Z,15.30
2017-08-27T22:44:13.191Z,15.30
2017-08-27T22:46:40.821Z,15.30
2017-08-27T22:49:08.450Z,15.20
2017-08-27T22:51:36.215Z,15.20
2017-08-27T22:54:03.872Z,15.20
2017-08-27T22:56:31.512Z,15.10
2017-08-27T22:58:59.193Z,15.10
2017-08-27T23:01:26.828Z,15.10
2017-08-27T23:03:54.468Z,15.10
2017-08-27T23:06:22.153Z,15.00
2017-08-27T23:08:50.703Z,15.00
2017-08-27T23:11:18.361Z,15.00
2017-08-27T23:13:46.191Z,15.00
2017-08-27T23:16:13.850Z,15.00
2017-08-27T23:18:41.486Z,15.00
2017-08-27T23:21:09.320Z,15.10
2017-08-27T23:23:36.966Z,15.10
2017-08-27T23:26:04.603Z,15.10
2017-08-27T23:28:32.388Z,15.10
2017-08-27T23:31:00.057Z,15.00
2017-08-27T23:33:28.494Z,15.10
2017-08-27T23:35:56.192Z,15.00
2017-08-27T23:38:23.884Z,15.00
2017-08-27T23:40:51.626Z,15.00
2017-08-27T23:43:19.470Z,15.00
2017-08-27T23:45:47.149Z,15.00
2017-08-27T23:48:14.797Z,15.00
2017-08-27T23:50:42.629Z,15.00
2017-08-27T23:53:10.280Z,14.90
2017-08-27T23:55:37.886Z,14.90
2017-08-27T23:58:05.562Z,14.90
